sensor_id;sensor_type;location;lat;lon;timestamp;P1;durP1;ratioP1;P2;durP2;ratioP2
12141;SDS011;6134;59.284;18.022;2023-01-28T00:02:28;1.88;;;1.23;;
12141;SDS011;6134;59.284;18.022;2023-01-28T00:04:57;3.97;;;1.60;;
12141;SDS011;6134;59.284;18.022;2023-01-28T00:07:26;2.92;;;1.65;;
12141;SDS011;6134;59.284;18.022;2023-01-28T00:09:54;3.03;;;1.50;;
12141;SDS011;6134;59.284;18.022;2023-01-28T00:12:26;1.88;;;1.60;;
12141;SDS011;6134;59.284;18.022;2023-01-28T00:14:55;2.67;;;1.40;;
12141;SDS011;6134;59.284;18.022;2023-01-28T00:17:23;2.55;;;1.60;;
12141;SDS011;6134;59.284;18.022;2023-01-28T00:19:54;1.83;;;1.38;;
12141;SDS011;6134;59.284;18.022;2023-01-28T00:22:22;2.03;;;1.48;;
12141;SDS011;6134;59.284;18.022;2023-01-28T00:24:51;1.88;;;1.45;;
12141;SDS011;6134;59.284;18.022;2023-01-28T00:27:20;1.40;;;1.30;;
12141;SDS011;6134;59.284;18.022;2023-01-28T00:29:48;1.77;;;1.27;;
12141;SDS011;6134;59.284;18.022;2023-01-28T00:32:21;2.00;;;1.45;;
12141;SDS011;6134;59.284;18.022;2023-01-28T00:34:51;3.03;;;1.80;;
12141;SDS011;6134;59.284;18.022;2023-01-28T00:37:21;4.88;;;1.77;;
12141;SDS011;6134;59.284;18.022;2023-01-28T00:39:50;3.83;;;1.58;;
12141;SDS011;6134;59.284;18.022;2023-01-28T00:42:19;1.80;;;1.35;;
12141;SDS011;6134;59.284;18.022;2023-01-28T00:44:49;2.30;;;1.40;;
12141;SDS011;6134;59.284;18.022;2023-01-28T00:47:18;2.63;;;1.20;;
12141;SDS011;6134;59.284;18.022;2023-01-28T00:49:47;2.10;;;1.30;;
12141;SDS011;6134;59.284;18.022;2023-01-28T00:52:16;2.03;;;1.27;;
12141;SDS011;6134;59.284;18.022;2023-01-28T00:54:46;1.55;;;1.13;;
12141;SDS011;6134;59.284;18.022;2023-01-28T00:57:14;2.25;;;1.10;;
12141;SDS011;6134;59.284;18.022;2023-01-28T00:59:57;1.77;;;1.20;;
12141;SDS011;6134;59.284;18.022;2023-01-28T01:02:27;2.25;;;1.40;;
12141;SDS011;6134;59.284;18.022;2023-01-28T01:04:56;1.58;;;0.90;;
12141;SDS011;6134;59.284;18.022;2023-01-28T01:07:29;1.77;;;1.10;;
12141;SDS011;6134;59.284;18.022;2023-01-28T01:10:09;1.27;;;1.17;;
12141;SDS011;6134;59.284;18.022;2023-01-28T01:12:39;1.52;;;1.02;;
12141;SDS011;6134;59.284;18.022;2023-01-28T01:15:08;1.33;;;1.02;;
12141;SDS011;6134;59.284;18.022;2023-01-28T01:17:39;1.38;;;1.00;;
12141;SDS011;6134;59.284;18.022;2023-01-28T01:20:10;1.10;;;1.00;;
12141;SDS011;6134;59.284;18.022;2023-01-28T01:22:39;1.40;;;1.10;;
12141;SDS011;6134;59.284;18.022;2023-01-28T01:25:10;2.53;;;1.20;;
12141;SDS011;6134;59.284;18.022;2023-01-28T01:27:40;1.08;;;0.98;;
12141;SDS011;6134;59.284;18.022;2023-01-28T01:30:09;1.80;;;1.13;;
12141;SDS011;6134;59.284;18.022;2023-01-28T01:32:38;0.80;;;0.73;;
12141;SDS011;6134;59.284;18.022;2023-01-28T01:35:08;2.13;;;1.20;;
12141;SDS011;6134;59.284;18.022;2023-01-28T01:37:38;1.83;;;1.30;;
12141;SDS011;6134;59.284;18.022;2023-01-28T01:40:12;1.48;;;0.98;;
12141;SDS011;6134;59.284;18.022;2023-01-28T01:42:42;1.65;;;1.10;;
12141;SDS011;6134;59.284;18.022;2023-01-28T01:45:11;2.78;;;1.35;;
12141;SDS011;6134;59.284;18.022;2023-01-28T01:47:42;1.77;;;1.00;;
12141;SDS011;6134;59.284;18.022;2023-01-28T01:50:16;1.15;;;1.00;;
12141;SDS011;6134;59.284;18.022;2023-01-28T01:52:46;2.67;;;1.27;;
12141;SDS011;6134;59.284;18.022;2023-01-28T01:55:17;1.90;;;1.20;;
12141;SDS011;6134;59.284;18.022;2023-01-28T01:57:47;3.28;;;1.08;;
12141;SDS011;6134;59.284;18.022;2023-01-28T02:00:17;1.35;;;0.90;;
12141;SDS011;6134;59.284;18.022;2023-01-28T02:02:47;1.00;;;0.90;;
12141;SDS011;6134;59.284;18.022;2023-01-28T02:05:18;2.75;;;1.20;;
12141;SDS011;6134;59.284;18.022;2023-01-28T02:07:50;1.10;;;0.85;;
12141;SDS011;6134;59.284;18.022;2023-01-28T02:10:45;1.05;;;0.85;;
12141;SDS011;6134;59.284;18.022;2023-01-28T02:13:14;1.20;;;1.10;;
12141;SDS011;6134;59.284;18.022;2023-01-28T02:15:43;3.10;;;1.13;;
12141;SDS011;6134;59.284;18.022;2023-01-28T02:18:13;0.93;;;0.70;;
12141;SDS011;6134;59.284;18.022;2023-01-28T02:20:51;1.05;;;0.95;;
12141;SDS011;6134;59.284;18.022;2023-01-28T02:23:31;3.45;;;1.00;;
12141;SDS011;6134;59.284;18.022;2023-01-28T02:26:09;2.13;;;0.80;;
12141;SDS011;6134;59.284;18.022;2023-01-28T02:28:44;1.45;;;0.95;;
12141;SDS011;6134;59.284;18.022;2023-01-28T02:31:16;1.33;;;0.90;;
12141;SDS011;6134;59.284;18.022;2023-01-28T02:33:48;0.98;;;0.88;;
12141;SDS011;6134;59.284;18.022;2023-01-28T02:36:21;1.40;;;1.20;;
12141;SDS011;6134;59.284;18.022;2023-01-28T02:38:51;1.00;;;0.90;;
12141;SDS011;6134;59.284;18.022;2023-01-28T02:41:22;1.48;;;0.88;;
12141;SDS011;6134;59.284;18.022;2023-01-28T02:43:52;1.13;;;0.80;;
12141;SDS011;6134;59.284;18.022;2023-01-28T02:46:32;1.77;;;0.75;;
12141;SDS011;6134;59.284;18.022;2023-01-28T02:49:20;1.92;;;0.98;;
12141;SDS011;6134;59.284;18.022;2023-01-28T02:51:52;1.05;;;0.90;;
12141;SDS011;6134;59.284;18.022;2023-01-28T02:54:28;1.08;;;0.98;;
12141;SDS011;6134;59.284;18.022;2023-01-28T02:57:02;2.40;;;0.90;;
12141;SDS011;6134;59.284;18.022;2023-01-28T02:59:39;1.52;;;0.90;;
12141;SDS011;6134;59.284;18.022;2023-01-28T03:02:11;1.02;;;0.90;;
12141;SDS011;6134;59.284;18.022;2023-01-28T03:04:44;0.68;;;0.68;;
12141;SDS011;6134;59.284;18.022;2023-01-28T03:07:16;0.70;;;0.70;;
12141;SDS011;6134;59.284;18.022;2023-01-28T03:09:45;1.88;;;0.88;;
12141;SDS011;6134;59.284;18.022;2023-01-28T03:12:18;0.90;;;0.80;;
12141;SDS011;6134;59.284;18.022;2023-01-28T03:15:07;4.90;;;0.90;;
12141;SDS011;6134;59.284;18.022;2023-01-28T03:17:56;0.73;;;0.60;;
12141;SDS011;6134;59.284;18.022;2023-01-28T03:20:46;0.93;;;0.80;;
12141;SDS011;6134;59.284;18.022;2023-01-28T03:23:36;0.75;;;0.75;;
12141;SDS011;6134;59.284;18.022;2023-01-28T03:26:23;2.03;;;0.90;;
12141;SDS011;6134;59.284;18.022;2023-01-28T03:29:11;1.48;;;0.90;;
12141;SDS011;6134;59.284;18.022;2023-01-28T03:32:01;1.02;;;0.70;;
12141;SDS011;6134;59.284;18.022;2023-01-28T03:34:47;1.20;;;0.88;;
12141;SDS011;6134;59.284;18.022;2023-01-28T03:37:34;1.38;;;0.73;;
12141;SDS011;6134;59.284;18.022;2023-01-28T03:40:29;0.90;;;0.60;;
12141;SDS011;6134;59.284;18.022;2023-01-28T03:42:58;1.20;;;0.85;;
12141;SDS011;6134;59.284;18.022;2023-01-28T03:45:34;1.00;;;0.80;;
12141;SDS011;6134;59.284;18.022;2023-01-28T03:48:06;1.38;;;0.90;;
12141;SDS011;6134;59.284;18.022;2023-01-28T03:50:35;0.60;;;0.60;;
12141;SDS011;6134;59.284;18.022;2023-01-28T03:53:04;1.45;;;0.90;;
12141;SDS011;6134;59.284;18.022;2023-01-28T03:55:51;0.52;;;0.52;;
12141;SDS011;6134;59.284;18.022;2023-01-28T03:58:22;1.02;;;0.82;;
12141;SDS011;6134;59.284;18.022;2023-01-28T04:00:52;1.08;;;0.80;;
12141;SDS011;6134;59.284;18.022;2023-01-28T04:03:23;1.67;;;0.80;;
12141;SDS011;6134;59.284;18.022;2023-01-28T04:06:02;1.27;;;0.90;;
12141;SDS011;6134;59.284;18.022;2023-01-28T04:09:06;2.85;;;0.80;;
12141;SDS011;6134;59.284;18.022;2023-01-28T04:11:42;1.05;;;0.65;;
12141;SDS011;6134;59.284;18.022;2023-01-28T04:14:17;2.90;;;0.90;;
12141;SDS011;6134;59.284;18.022;2023-01-28T04:16:52;2.10;;;0.88;;
12141;SDS011;6134;59.284;18.022;2023-01-28T04:19:24;2.35;;;0.82;;
12141;SDS011;6134;59.284;18.022;2023-01-28T04:21:55;0.73;;;0.68;;
12141;SDS011;6134;59.284;18.022;2023-01-28T04:24:24;0.90;;;0.70;;
12141;SDS011;6134;59.284;18.022;2023-01-28T04:26:53;1.17;;;1.00;;
12141;SDS011;6134;59.284;18.022;2023-01-28T04:29:23;1.33;;;0.73;;
12141;SDS011;6134;59.284;18.022;2023-01-28T04:31:55;1.77;;;0.73;;
12141;SDS011;6134;59.284;18.022;2023-01-28T04:34:39;0.88;;;0.77;;
12141;SDS011;6134;59.284;18.022;2023-01-28T04:37:17;1.27;;;0.75;;
12141;SDS011;6134;59.284;18.022;2023-01-28T04:40:04;1.13;;;0.60;;
12141;SDS011;6134;59.284;18.022;2023-01-28T04:42:59;0.77;;;0.57;;
12141;SDS011;6134;59.284;18.022;2023-01-28T04:45:51;2.53;;;0.90;;
12141;SDS011;6134;59.284;18.022;2023-01-28T04:48:58;1.05;;;0.68;;
12141;SDS011;6134;59.284;18.022;2023-01-28T04:51:47;2.08;;;0.73;;
12141;SDS011;6134;59.284;18.022;2023-01-28T04:54:35;3.05;;;0.70;;
12141;SDS011;6134;59.284;18.022;2023-01-28T04:57:04;1.23;;;0.70;;
12141;SDS011;6134;59.284;18.022;2023-01-28T04:59:34;1.15;;;0.90;;
12141;SDS011;6134;59.284;18.022;2023-01-28T05:02:03;1.05;;;0.52;;
12141;SDS011;6134;59.284;18.022;2023-01-28T05:04:32;1.88;;;0.60;;
12141;SDS011;6134;59.284;18.022;2023-01-28T05:07:02;1.55;;;0.75;;
12141;SDS011;6134;59.284;18.022;2023-01-28T05:09:31;1.10;;;0.50;;
12141;SDS011;6134;59.284;18.022;2023-01-28T05:12:02;1.10;;;0.60;;
12141;SDS011;6134;59.284;18.022;2023-01-28T05:14:32;1.83;;;0.70;;
12141;SDS011;6134;59.284;18.022;2023-01-28T05:17:05;0.73;;;0.55;;
12141;SDS011;6134;59.284;18.022;2023-01-28T05:19:35;0.93;;;0.80;;
12141;SDS011;6134;59.284;18.022;2023-01-28T05:22:10;0.60;;;0.60;;
12141;SDS011;6134;59.284;18.022;2023-01-28T05:24:42;1.40;;;0.73;;
12141;SDS011;6134;59.284;18.022;2023-01-28T05:27:10;3.58;;;0.90;;
12141;SDS011;6134;59.284;18.022;2023-01-28T05:29:40;1.23;;;0.80;;
12141;SDS011;6134;59.284;18.022;2023-01-28T05:32:08;1.48;;;0.75;;
12141;SDS011;6134;59.284;18.022;2023-01-28T05:34:37;2.78;;;0.70;;
12141;SDS011;6134;59.284;18.022;2023-01-28T05:37:11;2.55;;;0.80;;
12141;SDS011;6134;59.284;18.022;2023-01-28T05:39:40;0.82;;;0.73;;
12141;SDS011;6134;59.284;18.022;2023-01-28T05:42:10;1.40;;;0.70;;
12141;SDS011;6134;59.284;18.022;2023-01-28T05:44:44;1.23;;;0.70;;
12141;SDS011;6134;59.284;18.022;2023-01-28T05:47:33;0.80;;;0.80;;
12141;SDS011;6134;59.284;18.022;2023-01-28T05:50:21;1.02;;;0.73;;
12141;SDS011;6134;59.284;18.022;2023-01-28T05:53:11;3.13;;;1.00;;
12141;SDS011;6134;59.284;18.022;2023-01-28T05:55:44;3.55;;;0.80;;
12141;SDS011;6134;59.284;18.022;2023-01-28T05:58:15;2.75;;;0.82;;
12141;SDS011;6134;59.284;18.022;2023-01-28T06:00:44;1.30;;;0.80;;
12141;SDS011;6134;59.284;18.022;2023-01-28T06:03:16;2.95;;;0.90;;
12141;SDS011;6134;59.284;18.022;2023-01-28T06:05:45;1.40;;;0.70;;
12141;SDS011;6134;59.284;18.022;2023-01-28T06:08:16;2.72;;;0.80;;
12141;SDS011;6134;59.284;18.022;2023-01-28T06:10:46;1.80;;;0.77;;
12141;SDS011;6134;59.284;18.022;2023-01-28T06:13:15;1.55;;;0.70;;
12141;SDS011;6134;59.284;18.022;2023-01-28T06:16:02;2.70;;;0.90;;
12141;SDS011;6134;59.284;18.022;2023-01-28T06:18:49;0.60;;;0.60;;
12141;SDS011;6134;59.284;18.022;2023-01-28T06:21:18;2.95;;;1.02;;
12141;SDS011;6134;59.284;18.022;2023-01-28T06:23:51;1.42;;;0.80;;
12141;SDS011;6134;59.284;18.022;2023-01-28T06:26:20;1.42;;;0.65;;
12141;SDS011;6134;59.284;18.022;2023-01-28T06:28:49;1.25;;;0.70;;
12141;SDS011;6134;59.284;18.022;2023-01-28T06:31:20;1.75;;;0.60;;
12141;SDS011;6134;59.284;18.022;2023-01-28T06:33:49;3.25;;;0.90;;
12141;SDS011;6134;59.284;18.022;2023-01-28T06:36:18;3.20;;;1.13;;
12141;SDS011;6134;59.284;18.022;2023-01-28T06:38:46;2.10;;;0.90;;
12141;SDS011;6134;59.284;18.022;2023-01-28T06:41:16;2.17;;;1.27;;
12141;SDS011;6134;59.284;18.022;2023-01-28T06:43:45;3.33;;;0.85;;
12141;SDS011;6134;59.284;18.022;2023-01-28T06:46:14;2.00;;;0.70;;
12141;SDS011;6134;59.284;18.022;2023-01-28T06:48:42;2.80;;;1.00;;
12141;SDS011;6134;59.284;18.022;2023-01-28T06:51:20;2.15;;;0.82;;
12141;SDS011;6134;59.284;18.022;2023-01-28T06:53:49;2.22;;;0.80;;
12141;SDS011;6134;59.284;18.022;2023-01-28T06:56:19;2.60;;;0.90;;
12141;SDS011;6134;59.284;18.022;2023-01-28T06:58:50;2.97;;;0.80;;
12141;SDS011;6134;59.284;18.022;2023-01-28T07:01:19;2.85;;;0.90;;
12141;SDS011;6134;59.284;18.022;2023-01-28T07:03:48;3.65;;;1.02;;
12141;SDS011;6134;59.284;18.022;2023-01-28T07:06:17;4.63;;;0.85;;
12141;SDS011;6134;59.284;18.022;2023-01-28T07:08:46;1.55;;;1.00;;
12141;SDS011;6134;59.284;18.022;2023-01-28T07:11:14;1.38;;;0.90;;
12141;SDS011;6134;59.284;18.022;2023-01-28T07:13:44;2.78;;;1.10;;
12141;SDS011;6134;59.284;18.022;2023-01-28T07:16:13;6.78;;;1.30;;
12141;SDS011;6134;59.284;18.022;2023-01-28T07:18:42;1.95;;;1.17;;
12141;SDS011;6134;59.284;18.022;2023-01-28T07:21:10;3.95;;;0.95;;
12141;SDS011;6134;59.284;18.022;2023-01-28T07:23:40;1.10;;;0.70;;
12141;SDS011;6134;59.284;18.022;2023-01-28T07:26:09;2.72;;;0.90;;
12141;SDS011;6134;59.284;18.022;2023-01-28T07:28:38;3.30;;;1.10;;
12141;SDS011;6134;59.284;18.022;2023-01-28T07:31:10;2.95;;;1.00;;
12141;SDS011;6134;59.284;18.022;2023-01-28T07:33:38;3.60;;;1.00;;
12141;SDS011;6134;59.284;18.022;2023-01-28T07:36:07;3.42;;;0.98;;
12141;SDS011;6134;59.284;18.022;2023-01-28T07:38:36;1.95;;;0.95;;
12141;SDS011;6134;59.284;18.022;2023-01-28T07:41:05;2.40;;;1.00;;
12141;SDS011;6134;59.284;18.022;2023-01-28T07:43:34;2.72;;;1.17;;
12141;SDS011;6134;59.284;18.022;2023-01-28T07:46:05;1.30;;;1.10;;
12141;SDS011;6134;59.284;18.022;2023-01-28T07:48:35;2.85;;;1.30;;
12141;SDS011;6134;59.284;18.022;2023-01-28T07:51:04;1.25;;;1.05;;
12141;SDS011;6134;59.284;18.022;2023-01-28T07:53:33;1.73;;;1.15;;
12141;SDS011;6134;59.284;18.022;2023-01-28T07:56:02;2.63;;;1.20;;
12141;SDS011;6134;59.284;18.022;2023-01-28T07:58:31;2.17;;;1.30;;
12141;SDS011;6134;59.284;18.022;2023-01-28T08:01:01;6.80;;;1.27;;
12141;SDS011;6134;59.284;18.022;2023-01-28T08:03:30;2.85;;;1.52;;
12141;SDS011;6134;59.284;18.022;2023-01-28T08:06:01;2.40;;;1.20;;
12141;SDS011;6134;59.284;18.022;2023-01-28T08:08:29;2.97;;;1.02;;
12141;SDS011;6134;59.284;18.022;2023-01-28T08:11:04;3.20;;;1.50;;
12141;SDS011;6134;59.284;18.022;2023-01-28T08:13:34;3.05;;;1.48;;
12141;SDS011;6134;59.284;18.022;2023-01-28T08:16:03;6.45;;;1.50;;
12141;SDS011;6134;59.284;18.022;2023-01-28T08:18:32;1.95;;;1.15;;
12141;SDS011;6134;59.284;18.022;2023-01-28T08:21:02;5.30;;;2.03;;
12141;SDS011;6134;59.284;18.022;2023-01-28T08:23:31;2.53;;;1.20;;
12141;SDS011;6134;59.284;18.022;2023-01-28T08:26:01;2.63;;;1.38;;
12141;SDS011;6134;59.284;18.022;2023-01-28T08:28:29;2.20;;;1.27;;
12141;SDS011;6134;59.284;18.022;2023-01-28T08:30:59;4.60;;;1.50;;
12141;SDS011;6134;59.284;18.022;2023-01-28T08:33:29;4.35;;;1.30;;
12141;SDS011;6134;59.284;18.022;2023-01-28T08:36:02;2.53;;;1.10;;
12141;SDS011;6134;59.284;18.022;2023-01-28T08:38:31;4.28;;;1.40;;
12141;SDS011;6134;59.284;18.022;2023-01-28T08:41:00;5.95;;;1.08;;
12141;SDS011;6134;59.284;18.022;2023-01-28T08:43:29;7.35;;;1.80;;
12141;SDS011;6134;59.284;18.022;2023-01-28T08:45:57;3.85;;;1.38;;
12141;SDS011;6134;59.284;18.022;2023-01-28T08:48:28;3.63;;;1.00;;
12141;SDS011;6134;59.284;18.022;2023-01-28T08:50:57;2.90;;;1.23;;
12141;SDS011;6134;59.284;18.022;2023-01-28T08:53:27;2.95;;;1.42;;
12141;SDS011;6134;59.284;18.022;2023-01-28T08:55:56;5.13;;;1.98;;
12141;SDS011;6134;59.284;18.022;2023-01-28T08:58:24;4.82;;;1.40;;
12141;SDS011;6134;59.284;18.022;2023-01-28T09:00:53;2.58;;;1.30;;
12141;SDS011;6134;59.284;18.022;2023-01-28T09:03:22;5.00;;;1.73;;
12141;SDS011;6134;59.284;18.022;2023-01-28T09:05:51;3.78;;;1.65;;
12141;SDS011;6134;59.284;18.022;2023-01-28T09:08:19;2.92;;;1.40;;
12141;SDS011;6134;59.284;18.022;2023-01-28T09:10:54;5.53;;;1.40;;
12141;SDS011;6134;59.284;18.022;2023-01-28T09:13:23;7.63;;;1.92;;
12141;SDS011;6134;59.284;18.022;2023-01-28T09:15:52;3.25;;;1.33;;
12141;SDS011;6134;59.284;18.022;2023-01-28T09:18:21;3.90;;;1.33;;
12141;SDS011;6134;59.284;18.022;2023-01-28T09:20:49;4.50;;;1.95;;
12141;SDS011;6134;59.284;18.022;2023-01-28T09:23:18;3.15;;;1.50;;
12141;SDS011;6134;59.284;18.022;2023-01-28T09:25:47;3.72;;;1.67;;
12141;SDS011;6134;59.284;18.022;2023-01-28T09:28:19;4.63;;;1.60;;
12141;SDS011;6134;59.284;18.022;2023-01-28T09:30:48;7.32;;;1.55;;
12141;SDS011;6134;59.284;18.022;2023-01-28T09:33:16;5.80;;;1.58;;
12141;SDS011;6134;59.284;18.022;2023-01-28T09:35:45;3.97;;;1.80;;
12141;SDS011;6134;59.284;18.022;2023-01-28T09:38:14;2.53;;;1.58;;
12141;SDS011;6134;59.284;18.022;2023-01-28T09:40:43;4.72;;;2.03;;
12141;SDS011;6134;59.284;18.022;2023-01-28T09:43:29;6.53;;;1.73;;
12141;SDS011;6134;59.284;18.022;2023-01-28T09:46:02;4.18;;;1.95;;
12141;SDS011;6134;59.284;18.022;2023-01-28T09:48:32;3.10;;;1.30;;
12141;SDS011;6134;59.284;18.022;2023-01-28T09:51:06;1.92;;;1.35;;
12141;SDS011;6134;59.284;18.022;2023-01-28T09:53:35;4.38;;;1.50;;
12141;SDS011;6134;59.284;18.022;2023-01-28T09:56:08;5.20;;;1.83;;
12141;SDS011;6134;59.284;18.022;2023-01-28T09:58:41;4.50;;;1.55;;
12141;SDS011;6134;59.284;18.022;2023-01-28T10:01:17;4.70;;;1.33;;
12141;SDS011;6134;59.284;18.022;2023-01-28T10:03:50;4.43;;;1.88;;
12141;SDS011;6134;59.284;18.022;2023-01-28T10:06:24;5.32;;;1.58;;
12141;SDS011;6134;59.284;18.022;2023-01-28T10:08:58;1.90;;;1.23;;
12141;SDS011;6134;59.284;18.022;2023-01-28T10:11:33;3.33;;;1.40;;
12141;SDS011;6134;59.284;18.022;2023-01-28T10:14:08;4.35;;;1.60;;
12141;SDS011;6134;59.284;18.022;2023-01-28T10:16:41;4.00;;;1.98;;
12141;SDS011;6134;59.284;18.022;2023-01-28T10:19:11;4.63;;;2.30;;
12141;SDS011;6134;59.284;18.022;2023-01-28T10:21:46;7.30;;;1.70;;
12141;SDS011;6134;59.284;18.022;2023-01-28T10:24:16;5.63;;;1.90;;
12141;SDS011;6134;59.284;18.022;2023-01-28T10:26:51;4.15;;;2.70;;
12141;SDS011;6134;59.284;18.022;2023-01-28T10:29:22;8.10;;;2.13;;
12141;SDS011;6134;59.284;18.022;2023-01-28T10:31:52;3.42;;;1.60;;
12141;SDS011;6134;59.284;18.022;2023-01-28T10:34:21;3.30;;;1.60;;
12141;SDS011;6134;59.284;18.022;2023-01-28T10:36:50;5.68;;;1.80;;
12141;SDS011;6134;59.284;18.022;2023-01-28T10:39:22;4.38;;;1.38;;
12141;SDS011;6134;59.284;18.022;2023-01-28T10:41:52;3.75;;;1.45;;
12141;SDS011;6134;59.284;18.022;2023-01-28T10:44:30;4.55;;;1.27;;
12141;SDS011;6134;59.284;18.022;2023-01-28T10:47:01;2.35;;;1.30;;
12141;SDS011;6134;59.284;18.022;2023-01-28T10:49:30;1.67;;;1.30;;
12141;SDS011;6134;59.284;18.022;2023-01-28T10:52:09;2.25;;;1.50;;
12141;SDS011;6134;59.284;18.022;2023-01-28T10:54:38;2.42;;;1.23;;
12141;SDS011;6134;59.284;18.022;2023-01-28T10:57:08;2.15;;;1.13;;
12141;SDS011;6134;59.284;18.022;2023-01-28T10:59:40;3.47;;;1.48;;
12141;SDS011;6134;59.284;18.022;2023-01-28T11:02:26;3.47;;;1.20;;
12141;SDS011;6134;59.284;18.022;2023-01-28T11:05:02;3.10;;;1.65;;
12141;SDS011;6134;59.284;18.022;2023-01-28T11:07:32;3.80;;;1.30;;
12141;SDS011;6134;59.284;18.022;2023-01-28T11:10:01;2.42;;;1.30;;
12141;SDS011;6134;59.284;18.022;2023-01-28T11:12:29;4.07;;;1.65;;
12141;SDS011;6134;59.284;18.022;2023-01-28T11:15:00;4.43;;;1.52;;
12141;SDS011;6134;59.284;18.022;2023-01-28T11:17:30;3.25;;;1.40;;
12141;SDS011;6134;59.284;18.022;2023-01-28T11:20:00;3.70;;;1.20;;
12141;SDS011;6134;59.284;18.022;2023-01-28T11:22:37;2.53;;;1.27;;
12141;SDS011;6134;59.284;18.022;2023-01-28T11:27:45;2.55;;;1.08;;
12141;SDS011;6134;59.284;18.022;2023-01-28T11:30:20;5.10;;;1.33;;
12141;SDS011;6134;59.284;18.022;2023-01-28T11:32:54;4.55;;;1.80;;
12141;SDS011;6134;59.284;18.022;2023-01-28T11:35:23;4.43;;;1.65;;
12141;SDS011;6134;59.284;18.022;2023-01-28T11:37:54;3.15;;;0.90;;
12141;SDS011;6134;59.284;18.022;2023-01-28T11:40:25;5.75;;;1.48;;
12141;SDS011;6134;59.284;18.022;2023-01-28T11:42:54;2.90;;;1.10;;
12141;SDS011;6134;59.284;18.022;2023-01-28T11:45:30;6.03;;;1.48;;
12141;SDS011;6134;59.284;18.022;2023-01-28T11:48:02;4.15;;;1.48;;
12141;SDS011;6134;59.284;18.022;2023-01-28T11:50:38;3.45;;;1.42;;
12141;SDS011;6134;59.284;18.022;2023-01-28T11:53:16;3.85;;;1.30;;
12141;SDS011;6134;59.284;18.022;2023-01-28T11:55:51;2.72;;;1.13;;
12141;SDS011;6134;59.284;18.022;2023-01-28T11:58:22;4.82;;;1.40;;
12141;SDS011;6134;59.284;18.022;2023-01-28T12:00:59;3.33;;;1.00;;
12141;SDS011;6134;59.284;18.022;2023-01-28T12:03:37;1.73;;;1.10;;
12141;SDS011;6134;59.284;18.022;2023-01-28T12:08:56;5.75;;;1.30;;
12141;SDS011;6134;59.284;18.022;2023-01-28T12:11:29;4.07;;;1.30;;
12141;SDS011;6134;59.284;18.022;2023-01-28T12:14:20;2.40;;;1.27;;
12141;SDS011;6134;59.284;18.022;2023-01-28T12:17:00;5.13;;;1.67;;
12141;SDS011;6134;59.284;18.022;2023-01-28T12:19:32;3.00;;;1.17;;
12141;SDS011;6134;59.284;18.022;2023-01-28T12:22:13;6.00;;;1.25;;
12141;SDS011;6134;59.284;18.022;2023-01-28T12:24:49;5.35;;;1.50;;
12141;SDS011;6134;59.284;18.022;2023-01-28T12:27:25;4.15;;;1.25;;
12141;SDS011;6134;59.284;18.022;2023-01-28T12:29:59;3.63;;;1.50;;
12141;SDS011;6134;59.284;18.022;2023-01-28T12:32:37;3.45;;;1.27;;
12141;SDS011;6134;59.284;18.022;2023-01-28T12:35:16;2.42;;;1.00;;
12141;SDS011;6134;59.284;18.022;2023-01-28T12:37:52;5.82;;;1.30;;
12141;SDS011;6134;59.284;18.022;2023-01-28T12:40:42;3.25;;;1.25;;
12141;SDS011;6134;59.284;18.022;2023-01-28T12:43:13;5.10;;;1.23;;
12141;SDS011;6134;59.284;18.022;2023-01-28T12:45:44;4.65;;;1.38;;
12141;SDS011;6134;59.284;18.022;2023-01-28T12:48:16;2.72;;;1.17;;
12141;SDS011;6134;59.284;18.022;2023-01-28T12:50:46;5.05;;;1.38;;
12141;SDS011;6134;59.284;18.022;2023-01-28T12:53:19;3.10;;;1.00;;
12141;SDS011;6134;59.284;18.022;2023-01-28T12:55:51;3.17;;;1.25;;
12141;SDS011;6134;59.284;18.022;2023-01-28T12:58:23;3.90;;;1.20;;
12141;SDS011;6134;59.284;18.022;2023-01-28T13:00:53;1.63;;;1.05;;
12141;SDS011;6134;59.284;18.022;2023-01-28T13:03:26;3.15;;;1.25;;
12141;SDS011;6134;59.284;18.022;2023-01-28T13:05:58;3.15;;;1.20;;
12141;SDS011;6134;59.284;18.022;2023-01-28T13:08:30;1.25;;;0.90;;
12141;SDS011;6134;59.284;18.022;2023-01-28T13:11:00;2.88;;;0.93;;
12141;SDS011;6134;59.284;18.022;2023-01-28T13:13:31;3.97;;;1.10;;
12141;SDS011;6134;59.284;18.022;2023-01-28T13:16:00;1.63;;;1.15;;
12141;SDS011;6134;59.284;18.022;2023-01-28T13:18:32;2.75;;;1.13;;
12141;SDS011;6134;59.284;18.022;2023-01-28T13:21:02;3.38;;;1.00;;
12141;SDS011;6134;59.284;18.022;2023-01-28T13:23:36;7.35;;;1.48;;
12141;SDS011;6134;59.284;18.022;2023-01-28T13:26:09;2.85;;;1.15;;
12141;SDS011;6134;59.284;18.022;2023-01-28T13:28:38;3.58;;;1.20;;
12141;SDS011;6134;59.284;18.022;2023-01-28T13:31:07;2.92;;;1.10;;
12141;SDS011;6134;59.284;18.022;2023-01-28T13:33:40;6.70;;;1.98;;
12141;SDS011;6134;59.284;18.022;2023-01-28T13:36:17;3.72;;;1.13;;
12141;SDS011;6134;59.284;18.022;2023-01-28T13:38:49;5.32;;;1.65;;
12141;SDS011;6134;59.284;18.022;2023-01-28T13:41:35;2.85;;;1.30;;
12141;SDS011;6134;59.284;18.022;2023-01-28T13:44:15;4.35;;;1.17;;
12141;SDS011;6134;59.284;18.022;2023-01-28T13:46:44;2.53;;;1.17;;
12141;SDS011;6134;59.284;18.022;2023-01-28T13:49:15;3.15;;;0.93;;
12141;SDS011;6134;59.284;18.022;2023-01-28T13:51:56;2.20;;;1.50;;
12141;SDS011;6134;59.284;18.022;2023-01-28T13:54:26;4.38;;;1.08;;
12141;SDS011;6134;59.284;18.022;2023-01-28T13:57:04;2.90;;;1.20;;
12141;SDS011;6134;59.284;18.022;2023-01-28T13:59:40;2.03;;;1.20;;
12141;SDS011;6134;59.284;18.022;2023-01-28T14:02:21;2.10;;;1.30;;
12141;SDS011;6134;59.284;18.022;2023-01-28T14:05:18;3.90;;;1.38;;
12141;SDS011;6134;59.284;18.022;2023-01-28T14:08:05;3.33;;;1.20;;
12141;SDS011;6134;59.284;18.022;2023-01-28T14:10:37;2.33;;;1.67;;
12141;SDS011;6134;59.284;18.022;2023-01-28T14:13:16;2.65;;;1.30;;
12141;SDS011;6134;59.284;18.022;2023-01-28T14:15:57;3.53;;;1.35;;
12141;SDS011;6134;59.284;18.022;2023-01-28T14:18:30;3.83;;;1.50;;
12141;SDS011;6134;59.284;18.022;2023-01-28T14:21:03;4.72;;;1.63;;
12141;SDS011;6134;59.284;18.022;2023-01-28T14:23:36;3.90;;;2.10;;
12141;SDS011;6134;59.284;18.022;2023-01-28T14:26:15;3.97;;;1.75;;
12141;SDS011;6134;59.284;18.022;2023-01-28T14:28:47;3.55;;;1.30;;
12141;SDS011;6134;59.284;18.022;2023-01-28T14:31:23;4.25;;;1.40;;
12141;SDS011;6134;59.284;18.022;2023-01-28T14:33:54;3.33;;;1.10;;
12141;SDS011;6134;59.284;18.022;2023-01-28T14:36:24;2.13;;;1.00;;
12141;SDS011;6134;59.284;18.022;2023-01-28T14:38:53;2.30;;;1.02;;
12141;SDS011;6134;59.284;18.022;2023-01-28T14:41:24;1.52;;;1.00;;
12141;SDS011;6134;59.284;18.022;2023-01-28T14:43:53;4.35;;;1.35;;
12141;SDS011;6134;59.284;18.022;2023-01-28T14:46:26;5.05;;;1.27;;
12141;SDS011;6134;59.284;18.022;2023-01-28T14:49:01;4.40;;;1.42;;
12141;SDS011;6134;59.284;18.022;2023-01-28T14:51:43;4.60;;;1.15;;
12141;SDS011;6134;59.284;18.022;2023-01-28T14:54:21;6.65;;;1.58;;
12141;SDS011;6134;59.284;18.022;2023-01-28T14:56:57;3.38;;;1.35;;
12141;SDS011;6134;59.284;18.022;2023-01-28T14:59:31;2.70;;;1.00;;
12141;SDS011;6134;59.284;18.022;2023-01-28T15:02:09;6.55;;;1.33;;
12141;SDS011;6134;59.284;18.022;2023-01-28T15:04:40;2.75;;;1.10;;
12141;SDS011;6134;59.284;18.022;2023-01-28T15:07:15;3.28;;;1.00;;
12141;SDS011;6134;59.284;18.022;2023-01-28T15:09:44;5.75;;;1.40;;
12141;SDS011;6134;59.284;18.022;2023-01-28T15:12:13;4.35;;;1.00;;
12141;SDS011;6134;59.284;18.022;2023-01-28T15:14:43;3.63;;;1.40;;
12141;SDS011;6134;59.284;18.022;2023-01-28T15:17:18;4.88;;;1.33;;
12141;SDS011;6134;59.284;18.022;2023-01-28T15:19:50;3.15;;;1.02;;
12141;SDS011;6134;59.284;18.022;2023-01-28T15:22:22;2.55;;;1.20;;
12141;SDS011;6134;59.284;18.022;2023-01-28T15:24:53;3.53;;;1.27;;
12141;SDS011;6134;59.284;18.022;2023-01-28T15:27:23;3.47;;;1.85;;
12141;SDS011;6134;59.284;18.022;2023-01-28T15:29:54;15.38;;;8.50;;